sensor_id;sensor_type;location;lat;lon;timestamp;P1;durP1;ratioP1;P2;durP2;ratioP2
74614;SDS011;63121;51.458;-0.110;2023-05-16T00:00:52;5.43;;;1.70;;
74614;SDS011;63121;51.458;-0.110;2023-05-16T00:03:17;8.02;;;1.95;;
74614;SDS011;63121;51.458;-0.110;2023-05-16T00:05:43;7.72;;;1.83;;
74614;SDS011;63121;51.458;-0.110;2023-05-16T00:08:09;6.65;;;1.92;;
74614;SDS011;63121;51.458;-0.110;2023-05-16T00:10:35;9.93;;;2.20;;
74614;SDS011;63121;51.458;-0.110;2023-05-16T00:13:01;7.65;;;2.63;;
74614;SDS011;63121;51.458;-0.110;2023-05-16T00:15:27;8.90;;;2.38;;
74614;SDS011;63121;51.458;-0.110;2023-05-16T00:17:54;8.27;;;2.03;;
74614;SDS011;63121;51.458;-0.110;2023-05-16T00:20:22;10.27;;;2.22;;
74614;SDS011;63121;51.458;-0.110;2023-05-16T00:22:48;5.82;;;1.70;;
74614;SDS011;63121;51.458;-0.110;2023-05-16T00:25:14;9.82;;;2.30;;
74614;SDS011;63121;51.458;-0.110;2023-05-16T00:27:39;8.05;;;2.08;;
74614;SDS011;63121;51.458;-0.110;2023-05-16T00:30:05;9.10;;;1.80;;
74614;SDS011;63121;51.458;-0.110;2023-05-16T00:32:32;9.32;;;2.13;;
74614;SDS011;63121;51.458;-0.110;2023-05-16T00:34:57;8.93;;;1.77;;
74614;SDS011;63121;51.458;-0.110;2023-05-16T00:37:23;6.63;;;1.87;;
74614;SDS011;63121;51.458;-0.110;2023-05-16T00:39:48;8.50;;;1.92;;
74614;SDS011;63121;51.458;-0.110;2023-05-16T00:42:14;6.95;;;1.67;;
74614;SDS011;63121;51.458;-0.110;2023-05-16T00:44:39;9.77;;;1.87;;
74614;SDS011;63121;51.458;-0.110;2023-05-16T00:47:05;7.40;;;1.85;;
74614;SDS011;63121;51.458;-0.110;2023-05-16T00:49:31;7.75;;;1.95;;
74614;SDS011;63121;51.458;-0.110;2023-05-16T00:51:56;7.18;;;1.65;;
74614;SDS011;63121;51.458;-0.110;2023-05-16T00:54:22;6.65;;;1.85;;
74614;SDS011;63121;51.458;-0.110;2023-05-16T00:56:51;9.63;;;1.80;;
74614;SDS011;63121;51.458;-0.110;2023-05-16T00:59:17;7.97;;;1.65;;
74614;SDS011;63121;51.458;-0.110;2023-05-16T01:01:44;8.15;;;1.70;;
74614;SDS011;63121;51.458;-0.110;2023-05-16T01:04:11;5.22;;;1.73;;
74614;SDS011;63121;51.458;-0.110;2023-05-16T01:06:38;6.88;;;1.65;;
74614;SDS011;63121;51.458;-0.110;2023-05-16T01:09:03;6.95;;;1.83;;
74614;SDS011;63121;51.458;-0.110;2023-05-16T01:14:13;9.23;;;1.92;;
74614;SDS011;63121;51.458;-0.110;2023-05-16T01:19:15;7.25;;;1.80;;
74614;SDS011;63121;51.458;-0.110;2023-05-16T01:22:05;5.22;;;1.42;;
74614;SDS011;63121;51.458;-0.110;2023-05-16T01:24:45;9.15;;;1.90;;
74614;SDS011;63121;51.458;-0.110;2023-05-16T01:27:26;7.85;;;1.95;;
74614;SDS011;63121;51.458;-0.110;2023-05-16T01:29:54;7.38;;;2.03;;
74614;SDS011;63121;51.458;-0.110;2023-05-16T01:32:20;8.32;;;2.17;;
74614;SDS011;63121;51.458;-0.110;2023-05-16T01:34:47;6.68;;;1.60;;
74614;SDS011;63121;51.458;-0.110;2023-05-16T01:39:54;6.75;;;2.15;;
74614;SDS011;63121;51.458;-0.110;2023-05-16T01:42:24;5.82;;;1.88;;
74614;SDS011;63121;51.458;-0.110;2023-05-16T01:44:55;6.15;;;1.83;;
74614;SDS011;63121;51.458;-0.110;2023-05-16T01:47:42;7.63;;;1.85;;
74614;SDS011;63121;51.458;-0.110;2023-05-16T01:50:15;6.50;;;1.50;;
74614;SDS011;63121;51.458;-0.110;2023-05-16T01:53:05;7.32;;;1.75;;
74614;SDS011;63121;51.458;-0.110;2023-05-16T01:55:38;6.45;;;1.77;;
74614;SDS011;63121;51.458;-0.110;2023-05-16T01:58:11;9.25;;;1.92;;
74614;SDS011;63121;51.458;-0.110;2023-05-16T02:00:39;10.00;;;2.05;;
74614;SDS011;63121;51.458;-0.110;2023-05-16T02:03:05;6.97;;;2.20;;
74614;SDS011;63121;51.458;-0.110;2023-05-16T02:05:30;7.57;;;1.70;;
74614;SDS011;63121;51.458;-0.110;2023-05-16T02:07:56;10.02;;;2.05;;
74614;SDS011;63121;51.458;-0.110;2023-05-16T02:10:23;8.68;;;1.85;;
74614;SDS011;63121;51.458;-0.110;2023-05-16T02:12:49;8.95;;;2.00;;
74614;SDS011;63121;51.458;-0.110;2023-05-16T02:15:14;6.63;;;1.90;;
74614;SDS011;63121;51.458;-0.110;2023-05-16T02:17:40;7.50;;;1.77;;
74614;SDS011;63121;51.458;-0.110;2023-05-16T02:20:06;8.70;;;2.30;;
74614;SDS011;63121;51.458;-0.110;2023-05-16T02:22:34;6.53;;;1.95;;
74614;SDS011;63121;51.458;-0.110;2023-05-16T02:25:01;6.45;;;1.83;;
74614;SDS011;63121;51.458;-0.110;2023-05-16T02:27:27;7.75;;;2.00;;
74614;SDS011;63121;51.458;-0.110;2023-05-16T02:29:53;9.90;;;2.50;;
74614;SDS011;63121;51.458;-0.110;2023-05-16T02:32:19;7.22;;;2.03;;
74614;SDS011;63121;51.458;-0.110;2023-05-16T02:34:44;10.60;;;2.65;;
74614;SDS011;63121;51.458;-0.110;2023-05-16T02:37:09;7.90;;;2.10;;
74614;SDS011;63121;51.458;-0.110;2023-05-16T02:39:35;7.65;;;1.85;;
74614;SDS011;63121;51.458;-0.110;2023-05-16T02:42:01;9.13;;;2.15;;
74614;SDS011;63121;51.458;-0.110;2023-05-16T02:44:27;9.52;;;2.30;;
74614;SDS011;63121;51.458;-0.110;2023-05-16T02:46:53;7.40;;;2.10;;
74614;SDS011;63121;51.458;-0.110;2023-05-16T02:49:18;8.87;;;2.17;;
74614;SDS011;63121;51.458;-0.110;2023-05-16T02:51:43;7.47;;;2.28;;
74614;SDS011;63121;51.458;-0.110;2023-05-16T02:54:09;13.48;;;2.67;;
74614;SDS011;63121;51.458;-0.110;2023-05-16T02:56:35;7.63;;;2.20;;
74614;SDS011;63121;51.458;-0.110;2023-05-16T02:59:01;6.32;;;2.08;;
74614;SDS011;63121;51.458;-0.110;2023-05-16T03:01:28;9.73;;;2.50;;
74614;SDS011;63121;51.458;-0.110;2023-05-16T03:03:53;8.05;;;2.78;;
74614;SDS011;63121;51.458;-0.110;2023-05-16T03:06:18;8.10;;;2.55;;
74614;SDS011;63121;51.458;-0.110;2023-05-16T03:08:44;10.63;;;2.43;;
74614;SDS011;63121;51.458;-0.110;2023-05-16T03:11:09;8.95;;;2.30;;
74614;SDS011;63121;51.458;-0.110;2023-05-16T03:13:35;10.27;;;2.35;;
74614;SDS011;63121;51.458;-0.110;2023-05-16T03:16:00;9.52;;;2.42;;
74614;SDS011;63121;51.458;-0.110;2023-05-16T03:18:26;10.80;;;2.58;;
74614;SDS011;63121;51.458;-0.110;2023-05-16T03:20:51;10.23;;;2.55;;
74614;SDS011;63121;51.458;-0.110;2023-05-16T03:23:17;7.75;;;2.22;;
74614;SDS011;63121;51.458;-0.110;2023-05-16T03:25:43;8.73;;;2.20;;
74614;SDS011;63121;51.458;-0.110;2023-05-16T03:28:10;10.07;;;2.78;;
74614;SDS011;63121;51.458;-0.110;2023-05-16T03:30:36;6.72;;;1.98;;
74614;SDS011;63121;51.458;-0.110;2023-05-16T03:33:01;8.23;;;2.10;;
74614;SDS011;63121;51.458;-0.110;2023-05-16T03:35:28;6.57;;;2.10;;
74614;SDS011;63121;51.458;-0.110;2023-05-16T03:37:54;7.47;;;2.50;;
74614;SDS011;63121;51.458;-0.110;2023-05-16T03:40:20;9.15;;;2.70;;
74614;SDS011;63121;51.458;-0.110;2023-05-16T03:42:45;8.38;;;2.67;;
74614;SDS011;63121;51.458;-0.110;2023-05-16T03:45:11;9.00;;;2.83;;
74614;SDS011;63121;51.458;-0.110;2023-05-16T03:47:36;8.68;;;2.95;;
74614;SDS011;63121;51.458;-0.110;2023-05-16T03:50:02;10.07;;;2.70;;
74614;SDS011;63121;51.458;-0.110;2023-05-16T03:52:27;12.02;;;3.53;;
74614;SDS011;63121;51.458;-0.110;2023-05-16T03:54:53;8.75;;;2.83;;
74614;SDS011;63121;51.458;-0.110;2023-05-16T03:57:18;9.68;;;3.20;;
74614;SDS011;63121;51.458;-0.110;2023-05-16T03:59:43;8.73;;;3.07;;
74614;SDS011;63121;51.458;-0.110;2023-05-16T04:02:09;9.15;;;3.08;;
74614;SDS011;63121;51.458;-0.110;2023-05-16T04:04:35;9.70;;;3.10;;
74614;SDS011;63121;51.458;-0.110;2023-05-16T04:07:00;11.02;;;3.40;;
74614;SDS011;63121;51.458;-0.110;2023-05-16T04:09:26;10.38;;;3.38;;
74614;SDS011;63121;51.458;-0.110;2023-05-16T04:11:51;8.07;;;2.78;;
74614;SDS011;63121;51.458;-0.110;2023-05-16T04:14:17;12.73;;;3.65;;
74614;SDS011;63121;51.458;-0.110;2023-05-16T04:16:42;11.82;;;3.55;;
74614;SDS011;63121;51.458;-0.110;2023-05-16T04:19:07;9.57;;;3.42;;
74614;SDS011;63121;51.458;-0.110;2023-05-16T04:21:33;11.07;;;3.28;;
74614;SDS011;63121;51.458;-0.110;2023-05-16T04:26:25;10.37;;;2.80;;
74614;SDS011;63121;51.458;-0.110;2023-05-16T04:28:51;10.77;;;3.15;;
74614;SDS011;63121;51.458;-0.110;2023-05-16T04:31:17;10.00;;;2.53;;
74614;SDS011;63121;51.458;-0.110;2023-05-16T04:33:42;6.63;;;2.28;;
74614;SDS011;63121;51.458;-0.110;2023-05-16T04:36:07;11.57;;;2.83;;
74614;SDS011;63121;51.458;-0.110;2023-05-16T04:38:33;7.83;;;2.30;;
74614;SDS011;63121;51.458;-0.110;2023-05-16T04:40:58;8.18;;;2.13;;
74614;SDS011;63121;51.458;-0.110;2023-05-16T04:43:24;7.45;;;2.05;;
74614;SDS011;63121;51.458;-0.110;2023-05-16T04:45:50;10.23;;;2.00;;
74614;SDS011;63121;51.458;-0.110;2023-05-16T04:48:17;14.90;;;2.42;;
74614;SDS011;63121;51.458;-0.110;2023-05-16T04:50:43;7.55;;;1.92;;
74614;SDS011;63121;51.458;-0.110;2023-05-16T04:53:08;7.85;;;2.05;;
74614;SDS011;63121;51.458;-0.110;2023-05-16T04:55:34;8.30;;;1.60;;
74614;SDS011;63121;51.458;-0.110;2023-05-16T04:57:59;6.97;;;1.70;;
74614;SDS011;63121;51.458;-0.110;2023-05-16T05:00:24;6.93;;;1.60;;
74614;SDS011;63121;51.458;-0.110;2023-05-16T05:02:50;6.70;;;1.33;;
74614;SDS011;63121;51.458;-0.110;2023-05-16T05:05:16;7.57;;;1.45;;
74614;SDS011;63121;51.458;-0.110;2023-05-16T05:07:41;4.63;;;1.38;;
74614;SDS011;63121;51.458;-0.110;2023-05-16T05:10:07;10.55;;;1.55;;
74614;SDS011;63121;51.458;-0.110;2023-05-16T05:12:34;10.15;;;1.60;;
74614;SDS011;63121;51.458;-0.110;2023-05-16T05:14:59;8.38;;;1.50;;
74614;SDS011;63121;51.458;-0.110;2023-05-16T05:17:25;7.00;;;1.45;;
74614;SDS011;63121;51.458;-0.110;2023-05-16T05:19:50;5.57;;;1.20;;
74614;SDS011;63121;51.458;-0.110;2023-05-16T05:22:16;7.47;;;1.30;;
74614;SDS011;63121;51.458;-0.110;2023-05-16T05:24:41;8.18;;;1.40;;
74614;SDS011;63121;51.458;-0.110;2023-05-16T05:27:07;8.80;;;1.88;;
74614;SDS011;63121;51.458;-0.110;2023-05-16T05:29:32;7.93;;;1.58;;
74614;SDS011;63121;51.458;-0.110;2023-05-16T05:31:57;7.93;;;1.70;;
74614;SDS011;63121;51.458;-0.110;2023-05-16T05:34:23;9.60;;;1.80;;
74614;SDS011;63121;51.458;-0.110;2023-05-16T05:36:48;6.00;;;1.47;;
74614;SDS011;63121;51.458;-0.110;2023-05-16T05:39:14;8.52;;;2.03;;
74614;SDS011;63121;51.458;-0.110;2023-05-16T05:41:39;8.15;;;1.75;;
74614;SDS011;63121;51.458;-0.110;2023-05-16T05:44:05;6.05;;;1.40;;
74614;SDS011;63121;51.458;-0.110;2023-05-16T05:46:30;7.65;;;1.80;;
74614;SDS011;63121;51.458;-0.110;2023-05-16T05:48:57;6.78;;;1.70;;
74614;SDS011;63121;51.458;-0.110;2023-05-16T05:51:23;9.55;;;1.48;;
74614;SDS011;63121;51.458;-0.110;2023-05-16T05:53:50;8.50;;;1.73;;
74614;SDS011;63121;51.458;-0.110;2023-05-16T05:56:16;9.10;;;1.90;;
74614;SDS011;63121;51.458;-0.110;2023-05-16T05:58:42;9.63;;;1.65;;
74614;SDS011;63121;51.458;-0.110;2023-05-16T06:01:09;8.45;;;1.65;;
74614;SDS011;63121;51.458;-0.110;2023-05-16T06:03:35;6.95;;;1.85;;
74614;SDS011;63121;51.458;-0.110;2023-05-16T06:06:01;5.57;;;1.20;;
74614;SDS011;63121;51.458;-0.110;2023-05-16T06:08:26;7.70;;;1.60;;
74614;SDS011;63121;51.458;-0.110;2023-05-16T06:10:51;8.45;;;1.70;;
74614;SDS011;63121;51.458;-0.110;2023-05-16T06:13:18;8.85;;;1.80;;
74614;SDS011;63121;51.458;-0.110;2023-05-16T06:15:43;9.68;;;1.83;;
74614;SDS011;63121;51.458;-0.110;2023-05-16T06:18:08;10.10;;;1.73;;
74614;SDS011;63121;51.458;-0.110;2023-05-16T06:20:34;8.43;;;2.10;;
74614;SDS011;63121;51.458;-0.110;2023-05-16T06:23:00;9.55;;;1.90;;
74614;SDS011;63121;51.458;-0.110;2023-05-16T06:25:25;7.18;;;1.60;;
74614;SDS011;63121;51.458;-0.110;2023-05-16T06:27:50;6.97;;;1.40;;
74614;SDS011;63121;51.458;-0.110;2023-05-16T06:30:16;6.35;;;1.48;;
74614;SDS011;63121;51.458;-0.110;2023-05-16T06:32:41;7.03;;;1.70;;
74614;SDS011;63121;51.458;-0.110;2023-05-16T06:35:07;9.57;;;1.80;;
74614;SDS011;63121;51.458;-0.110;2023-05-16T06:37:33;9.75;;;1.75;;
74614;SDS011;63121;51.458;-0.110;2023-05-16T06:39:59;4.75;;;1.23;;
74614;SDS011;63121;51.458;-0.110;2023-05-16T06:42:24;8.15;;;1.50;;
74614;SDS011;63121;51.458;-0.110;2023-05-16T06:44:50;7.38;;;1.40;;
74614;SDS011;63121;51.458;-0.110;2023-05-16T06:47:15;8.50;;;1.83;;
74614;SDS011;63121;51.458;-0.110;2023-05-16T06:49:40;6.57;;;1.77;;
74614;SDS011;63121;51.458;-0.110;2023-05-16T06:52:06;6.17;;;1.40;;
74614;SDS011;63121;51.458;-0.110;2023-05-16T06:54:31;10.25;;;1.80;;
74614;SDS011;63121;51.458;-0.110;2023-05-16T06:56:57;10.80;;;2.13;;
74614;SDS011;63121;51.458;-0.110;2023-05-16T06:59:22;8.23;;;1.43;;
74614;SDS011;63121;51.458;-0.110;2023-05-16T07:01:48;9.10;;;1.58;;
74614;SDS011;63121;51.458;-0.110;2023-05-16T07:04:13;10.55;;;1.65;;
74614;SDS011;63121;51.458;-0.110;2023-05-16T07:06:39;5.63;;;1.35;;
74614;SDS011;63121;51.458;-0.110;2023-05-16T07:09:04;4.43;;;1.00;;
74614;SDS011;63121;51.458;-0.110;2023-05-16T07:11:30;6.40;;;1.60;;
74614;SDS011;63121;51.458;-0.110;2023-05-16T07:13:55;6.57;;;1.50;;
74614;SDS011;63121;51.458;-0.110;2023-05-16T07:16:21;12.57;;;2.17;;
74614;SDS011;63121;51.458;-0.110;2023-05-16T07:18:46;7.53;;;1.30;;
74614;SDS011;63121;51.458;-0.110;2023-05-16T07:21:11;9.35;;;1.63;;
74614;SDS011;63121;51.458;-0.110;2023-05-16T07:23:37;6.50;;;1.30;;
74614;SDS011;63121;51.458;-0.110;2023-05-16T07:26:02;6.50;;;1.20;;
74614;SDS011;63121;51.458;-0.110;2023-05-16T07:28:27;9.90;;;1.42;;
74614;SDS011;63121;51.458;-0.110;2023-05-16T07:30:53;8.57;;;1.37;;
74614;SDS011;63121;51.458;-0.110;2023-05-16T07:33:19;7.43;;;1.30;;
74614;SDS011;63121;51.458;-0.110;2023-05-16T07:35:44;12.65;;;1.60;;
74614;SDS011;63121;51.458;-0.110;2023-05-16T07:38:10;7.45;;;1.20;;
74614;SDS011;63121;51.458;-0.110;2023-05-16T07:40:35;8.40;;;1.75;;
74614;SDS011;63121;51.458;-0.110;2023-05-16T07:43:01;8.82;;;1.20;;
74614;SDS011;63121;51.458;-0.110;2023-05-16T07:45:26;4.20;;;1.30;;
74614;SDS011;63121;51.458;-0.110;2023-05-16T07:47:52;14.93;;;1.95;;
74614;SDS011;63121;51.458;-0.110;2023-05-16T07:50:17;7.80;;;1.37;;
74614;SDS011;63121;51.458;-0.110;2023-05-16T07:52:43;9.02;;;1.30;;
74614;SDS011;63121;51.458;-0.110;2023-05-16T07:55:08;9.35;;;1.27;;
74614;SDS011;63121;51.458;-0.110;2023-05-16T07:57:34;5.85;;;1.27;;
74614;SDS011;63121;51.458;-0.110;2023-05-16T07:59:59;7.85;;;1.42;;
74614;SDS011;63121;51.458;-0.110;2023-05-16T08:02:25;6.40;;;1.55;;
74614;SDS011;63121;51.458;-0.110;2023-05-16T08:04:54;12.07;;;1.67;;
74614;SDS011;63121;51.458;-0.110;2023-05-16T08:07:21;4.20;;;1.13;;
74614;SDS011;63121;51.458;-0.110;2023-05-16T08:09:46;6.00;;;1.35;;
74614;SDS011;63121;51.458;-0.110;2023-05-16T08:12:11;6.43;;;1.20;;
74614;SDS011;63121;51.458;-0.110;2023-05-16T08:14:37;6.80;;;1.13;;
74614;SDS011;63121;51.458;-0.110;2023-05-16T08:17:03;7.13;;;1.23;;
74614;SDS011;63121;51.458;-0.110;2023-05-16T08:19:29;8.45;;;1.60;;
74614;SDS011;63121;51.458;-0.110;2023-05-16T08:21:54;6.95;;;1.30;;
74614;SDS011;63121;51.458;-0.110;2023-05-16T08:24:20;5.78;;;1.40;;
74614;SDS011;63121;51.458;-0.110;2023-05-16T08:26:45;2.80;;;0.95;;
74614;SDS011;63121;51.458;-0.110;2023-05-16T08:29:10;8.07;;;1.37;;
74614;SDS011;63121;51.458;-0.110;2023-05-16T08:31:36;7.60;;;1.25;;
74614;SDS011;63121;51.458;-0.110;2023-05-16T08:34:01;4.57;;;1.10;;
74614;SDS011;63121;51.458;-0.110;2023-05-16T08:36:30;7.68;;;1.58;;
74614;SDS011;63121;51.458;-0.110;2023-05-16T08:38:55;9.73;;;1.30;;
74614;SDS011;63121;51.458;-0.110;2023-05-16T08:41:20;2.90;;;0.87;;
74614;SDS011;63121;51.458;-0.110;2023-05-16T08:43:46;8.23;;;1.10;;
74614;SDS011;63121;51.458;-0.110;2023-05-16T08:46:12;4.25;;;0.98;;
74614;SDS011;63121;51.458;-0.110;2023-05-16T08:48:37;6.15;;;1.17;;
74614;SDS011;63121;51.458;-0.110;2023-05-16T08:51:05;5.30;;;1.10;;
74614;SDS011;63121;51.458;-0.110;2023-05-16T08:53:39;7.78;;;1.42;;
74614;SDS011;63121;51.458;-0.110;2023-05-16T08:56:10;5.97;;;1.30;;
74614;SDS011;63121;51.458;-0.110;2023-05-16T08:58:37;8.43;;;1.58;;
74614;SDS011;63121;51.458;-0.110;2023-05-16T09:01:03;7.78;;;1.67;;
74614;SDS011;63121;51.458;-0.110;2023-05-16T09:03:32;5.10;;;1.05;;
74614;SDS011;63121;51.458;-0.110;2023-05-16T09:06:00;6.72;;;1.25;;
74614;SDS011;63121;51.458;-0.110;2023-05-16T09:08:25;6.80;;;1.02;;
74614;SDS011;63121;51.458;-0.110;2023-05-16T09:10:51;4.50;;;1.40;;
74614;SDS011;63121;51.458;-0.110;2023-05-16T09:13:16;5.00;;;0.90;;
74614;SDS011;63121;51.458;-0.110;2023-05-16T09:15:42;5.93;;;1.10;;
74614;SDS011;63121;51.458;-0.110;2023-05-16T09:18:10;6.55;;;1.30;;
74614;SDS011;63121;51.458;-0.110;2023-05-16T09:20:41;4.80;;;1.10;;
74614;SDS011;63121;51.458;-0.110;2023-05-16T09:23:10;6.15;;;1.20;;
74614;SDS011;63121;51.458;-0.110;2023-05-16T09:25:36;8.57;;;1.30;;
74614;SDS011;63121;51.458;-0.110;2023-05-16T09:28:04;8.73;;;1.13;;
74614;SDS011;63121;51.458;-0.110;2023-05-16T09:30:30;3.83;;;1.00;;
74614;SDS011;63121;51.458;-0.110;2023-05-16T09:32:57;3.13;;;1.00;;
74614;SDS011;63121;51.458;-0.110;2023-05-16T09:35:23;8.05;;;1.40;;
74614;SDS011;63121;51.458;-0.110;2023-05-16T09:37:49;6.95;;;1.33;;
74614;SDS011;63121;51.458;-0.110;2023-05-16T09:40:21;7.38;;;1.30;;
74614;SDS011;63121;51.458;-0.110;2023-05-16T09:42:48;9.10;;;1.25;;
74614;SDS011;63121;51.458;-0.110;2023-05-16T09:45:31;6.50;;;1.10;;
74614;SDS011;63121;51.458;-0.110;2023-05-16T09:48:03;4.32;;;1.00;;
74614;SDS011;63121;51.458;-0.110;2023-05-16T09:50:35;5.50;;;1.17;;
74614;SDS011;63121;51.458;-0.110;2023-05-16T09:53:01;7.55;;;1.33;;
74614;SDS011;63121;51.458;-0.110;2023-05-16T09:55:28;5.53;;;0.82;;
74614;SDS011;63121;51.458;-0.110;2023-05-16T09:57:54;8.90;;;1.08;;
74614;SDS011;63121;51.458;-0.110;2023-05-16T10:00:20;7.07;;;1.02;;
74614;SDS011;63121;51.458;-0.110;2023-05-16T10:02:45;4.40;;;0.98;;
74614;SDS011;63121;51.458;-0.110;2023-05-16T10:05:12;5.30;;;1.10;;
74614;SDS011;63121;51.458;-0.110;2023-05-16T10:07:37;5.40;;;1.02;;
74614;SDS011;63121;51.458;-0.110;2023-05-16T10:10:04;5.85;;;1.23;;
74614;SDS011;63121;51.458;-0.110;2023-05-16T10:12:32;5.75;;;1.40;;
74614;SDS011;63121;51.458;-0.110;2023-05-16T10:15:02;9.82;;;2.20;;
74614;SDS011;63121;51.458;-0.110;2023-05-16T10:17:29;7.18;;;1.58;;
74614;SDS011;63121;51.458;-0.110;2023-05-16T10:19:58;6.22;;;1.35;;
74614;SDS011;63121;51.458;-0.110;2023-05-16T10:22:28;8.35;;;1.30;;
74614;SDS011;63121;51.458;-0.110;2023-05-16T10:25:09;7.75;;;1.30;;
74614;SDS011;63121;51.458;-0.110;2023-05-16T10:27:44;5.20;;;0.90;;
74614;SDS011;63121;51.458;-0.110;2023-05-16T10:30:11;7.82;;;1.05;;
74614;SDS011;63121;51.458;-0.110;2023-05-16T10:32:37;4.28;;;1.55;;
74614;SDS011;63121;51.458;-0.110;2023-05-16T10:35:05;6.07;;;1.20;;
74614;SDS011;63121;51.458;-0.110;2023-05-16T10:37:31;4.15;;;1.10;;
74614;SDS011;63121;51.458;-0.110;2023-05-16T10:40:00;6.10;;;1.23;;
74614;SDS011;63121;51.458;-0.110;2023-05-16T10:42:30;5.78;;;1.30;;
74614;SDS011;63121;51.458;-0.110;2023-05-16T10:45:07;5.20;;;1.08;;
74614;SDS011;63121;51.458;-0.110;2023-05-16T10:48:03;4.82;;;0.77;;
74614;SDS011;63121;51.458;-0.110;2023-05-16T10:53:19;4.82;;;1.33;;
74614;SDS011;63121;51.458;-0.110;2023-05-16T11:01:14;4.95;;;0.90;;
74614;SDS011;63121;51.458;-0.110;2023-05-16T11:14:43;3.95;;;0.90;;
74614;SDS011;63121;51.458;-0.110;2023-05-16T11:17:07;4.68;;;1.00;;
74614;SDS011;63121;51.458;-0.110;2023-05-16T11:19:34;4.50;;;1.20;;
74614;SDS011;63121;51.458;-0.110;2023-05-16T11:27:33;8.27;;;1.20;;
74614;SDS011;63121;51.458;-0.110;2023-05-16T11:32:29;4.43;;;1.00;;
74614;SDS011;63121;51.458;-0.110;2023-05-16T11:34:55;8.13;;;1.30;;
74614;SDS011;63121;51.458;-0.110;2023-05-16T11:37:22;5.93;;;1.10;;
74614;SDS011;63121;51.458;-0.110;2023-05-16T11:39:47;4.40;;;1.10;;
74614;SDS011;63121;51.458;-0.110;2023-05-16T11:42:13;4.37;;;1.10;;
74614;SDS011;63121;51.458;-0.110;2023-05-16T11:44:39;4.78;;;1.02;;
74614;SDS011;63121;51.458;-0.110;2023-05-16T11:47:07;5.68;;;1.00;;
74614;SDS011;63121;51.458;-0.110;2023-05-16T11:49:33;2.63;;;0.90;;
74614;SDS011;63121;51.458;-0.110;2023-05-16T11:51:59;2.67;;;1.00;;
74614;SDS011;63121;51.458;-0.110;2023-05-16T11:54:25;2.33;;;0.80;;
74614;SDS011;63121;51.458;-0.110;2023-05-16T11:56:51;3.78;;;1.13;;
74614;SDS011;63121;51.458;-0.110;2023-05-16T11:59:17;3.90;;;0.90;;
74614;SDS011;63121;51.458;-0.110;2023-05-16T12:01:42;4.43;;;1.02;;
74614;SDS011;63121;51.458;-0.110;2023-05-16T12:04:09;5.60;;;1.10;;
74614;SDS011;63121;51.458;-0.110;2023-05-16T12:06:36;4.65;;;1.20;;
74614;SDS011;63121;51.458;-0.110;2023-05-16T12:09:02;6.18;;;0.98;;
74614;SDS011;63121;51.458;-0.110;2023-05-16T12:14:01;3.75;;;0.95;;
74614;SDS011;63121;51.458;-0.110;2023-05-16T12:16:27;5.60;;;0.98;;
74614;SDS011;63121;51.458;-0.110;2023-05-16T12:18:52;6.22;;;1.15;;
74614;SDS011;63121;51.458;-0.110;2023-05-16T12:21:18;3.42;;;1.08;;
74614;SDS011;63121;51.458;-0.110;2023-05-16T12:23:43;5.13;;;1.13;;
74614;SDS011;63121;51.458;-0.110;2023-05-16T12:26:09;5.93;;;1.23;;
74614;SDS011;63121;51.458;-0.110;2023-05-16T12:28:34;3.43;;;0.80;;
74614;SDS011;63121;51.458;-0.110;2023-05-16T12:31:02;3.33;;;1.00;;
74614;SDS011;63121;51.458;-0.110;2023-05-16T12:33:28;6.18;;;1.00;;
74614;SDS011;63121;51.458;-0.110;2023-05-16T12:35:53;3.95;;;0.90;;
74614;SDS011;63121;51.458;-0.110;2023-05-16T12:38:19;4.82;;;1.15;;
74614;SDS011;63121;51.458;-0.110;2023-05-16T12:40:45;6.82;;;1.30;;
74614;SDS011;63121;51.458;-0.110;2023-05-16T12:45:41;3.42;;;0.98;;
74614;SDS011;63121;51.458;-0.110;2023-05-16T12:48:11;3.70;;;1.00;;
74614;SDS011;63121;51.458;-0.110;2023-05-16T12:50:38;6.80;;;1.40;;
74614;SDS011;63121;51.458;-0.110;2023-05-16T12:53:04;2.70;;;0.82;;
74614;SDS011;63121;51.458;-0.110;2023-05-16T12:55:29;3.03;;;0.98;;
74614;SDS011;63121;51.458;-0.110;2023-05-16T12:57:55;3.53;;;0.80;;
74614;SDS011;63121;51.458;-0.110;2023-05-16T13:00:22;4.60;;;1.13;;
74614;SDS011;63121;51.458;-0.110;2023-05-16T13:02:47;4.53;;;0.98;;
74614;SDS011;63121;51.458;-0.110;2023-05-16T13:05:13;5.68;;;1.38;;
74614;SDS011;63121;51.458;-0.110;2023-05-16T13:07:39;2.55;;;0.98;;
74614;SDS011;63121;51.458;-0.110;2023-05-16T13:10:06;5.47;;;1.05;;
74614;SDS011;63121;51.458;-0.110;2023-05-16T13:12:34;6.32;;;1.35;;
74614;SDS011;63121;51.458;-0.110;2023-05-16T13:15:00;6.70;;;1.10;;
74614;SDS011;63121;51.458;-0.110;2023-05-16T13:17:26;4.53;;;1.20;;
74614;SDS011;63121;51.458;-0.110;2023-05-16T13:19:54;4.43;;;1.00;;
74614;SDS011;63121;51.458;-0.110;2023-05-16T13:22:19;3.10;;;1.00;;
74614;SDS011;63121;51.458;-0.110;2023-05-16T13:24:45;4.33;;;1.00;;
74614;SDS011;63121;51.458;-0.110;2023-05-16T13:27:10;4.72;;;1.90;;
74614;SDS011;63121;51.458;-0.110;2023-05-16T13:29:39;4.65;;;1.23;;
74614;SDS011;63121;51.458;-0.110;2023-05-16T13:32:05;4.28;;;1.02;;
74614;SDS011;63121;51.458;-0.110;2023-05-16T13:34:31;6.63;;;1.30;;
74614;SDS011;63121;51.458;-0.110;2023-05-16T13:36:57;4.57;;;1.30;;
74614;SDS011;63121;51.458;-0.110;2023-05-16T13:39:23;3.55;;;1.10;;
74614;SDS011;63121;51.458;-0.110;2023-05-16T13:41:48;3.50;;;1.10;;
74614;SDS011;63121;51.458;-0.110;2023-05-16T13:44:14;4.15;;;1.15;;
74614;SDS011;63121;51.458;-0.110;2023-05-16T13:46:40;4.68;;;1.40;;
74614;SDS011;63121;51.458;-0.110;2023-05-16T13:49:05;5.82;;;1.13;;
74614;SDS011;63121;51.458;-0.110;2023-05-16T13:51:31;4.30;;;1.40;;
74614;SDS011;63121;51.458;-0.110;2023-05-16T13:53:56;6.38;;;1.70;;
74614;SDS011;63121;51.458;-0.110;2023-05-16T13:56:22;5.88;;;1.20;;
74614;SDS011;63121;51.458;-0.110;2023-05-16T13:58:47;7.07;;;1.83;;
74614;SDS011;63121;51.458;-0.110;2023-05-16T14:01:14;5.80;;;1.27;;
74614;SDS011;63121;51.458;-0.110;2023-05-16T14:03:39;6.25;;;1.55;;
74614;SDS011;63121;51.458;-0.110;2023-05-16T14:06:05;5.60;;;1.40;;
74614;SDS011;63121;51.458;-0.110;2023-05-16T14:08:31;7.40;;;1.45;;
74614;SDS011;63121;51.458;-0.110;2023-05-16T14:10:56;9.43;;;1.90;;
74614;SDS011;63121;51.458;-0.110;2023-05-16T14:13:21;6.47;;;1.55;;
74614;SDS011;63121;51.458;-0.110;2023-05-16T14:15:47;5.67;;;1.60;;
74614;SDS011;63121;51.458;-0.110;2023-05-16T14:18:12;7.23;;;1.40;;
74614;SDS011;63121;51.458;-0.110;2023-05-16T14:20:38;6.68;;;1.80;;
74614;SDS011;63121;51.458;-0.110;2023-05-16T14:23:03;7.45;;;1.90;;
74614;SDS011;63121;51.458;-0.110;2023-05-16T14:25:29;8.10;;;1.88;;
74614;SDS011;63121;51.458;-0.110;2023-05-16T14:27:54;5.55;;;1.50;;
74614;SDS011;63121;51.458;-0.110;2023-05-16T14:30:19;6.23;;;1.57;;
74614;SDS011;63121;51.458;-0.110;2023-05-16T14:32:45;7.55;;;1.50;;
74614;SDS011;63121;51.458;-0.110;2023-05-16T14:35:10;6.05;;;1.83;;
74614;SDS011;63121;51.458;-0.110;2023-05-16T14:37:36;7.50;;;1.90;;
74614;SDS011;63121;51.458;-0.110;2023-05-16T14:40:01;6.90;;;1.73;;
74614;SDS011;63121;51.458;-0.110;2023-05-16T14:42:28;7.22;;;1.92;;
74614;SDS011;63121;51.458;-0.110;2023-05-16T14:44:55;9.10;;;2.00;;
74614;SDS011;63121;51.458;-0.110;2023-05-16T14:47:20;10.07;;;2.20;;
74614;SDS011;63121;51.458;-0.110;2023-05-16T14:49:46;10.00;;;1.83;;
74614;SDS011;63121;51.458;-0.110;2023-05-16T14:52:11;5.93;;;1.70;;
74614;SDS011;63121;51.458;-0.110;2023-05-16T14:54:37;6.15;;;1.65;;
74614;SDS011;63121;51.458;-0.110;2023-05-16T14:57:02;5.45;;;1.63;;
74614;SDS011;63121;51.458;-0.110;2023-05-16T14:59:28;7.78;;;2.08;;
74614;SDS011;63121;51.458;-0.110;2023-05-16T15:01:53;8.68;;;2.20;;
74614;SDS011;63121;51.458;-0.110;2023-05-16T15:04:18;8.53;;;2.30;;
74614;SDS011;63121;51.458;-0.110;2023-05-16T15:06:44;9.35;;;2.25;;
74614;SDS011;63121;51.458;-0.110;2023-05-16T15:09:09;8.88;;;2.30;;
74614;SDS011;63121;51.458;-0.110;2023-05-16T15:11:35;7.63;;;2.50;;